sensor_id;sensor_type;location;lat;lon;timestamp;P1;durP1;ratioP1;P2;durP2;ratioP2
30539;SDS011;17321;46.312;4.776;2022-12-18T00:01:40;76.53;;;39.67;;
30539;SDS011;17321;46.312;4.776;2022-12-18T00:04:07;66.53;;;36.63;;
30539;SDS011;17321;46.312;4.776;2022-12-18T00:06:34;70.55;;;35.97;;
30539;SDS011;17321;46.312;4.776;2022-12-18T00:09:00;81.35;;;38.35;;
30539;SDS011;17321;46.312;4.776;2022-12-18T00:11:29;73.55;;;38.90;;
30539;SDS011;17321;46.312;4.776;2022-12-18T00:13:56;75.78;;;38.85;;
30539;SDS011;17321;46.312;4.776;2022-12-18T00:16:23;79.05;;;39.95;;
30539;SDS011;17321;46.312;4.776;2022-12-18T00:18:50;79.32;;;40.65;;
30539;SDS011;17321;46.312;4.776;2022-12-18T00:21:17;80.32;;;40.72;;
30539;SDS011;17321;46.312;4.776;2022-12-18T00:23:44;78.18;;;38.67;;
30539;SDS011;17321;46.312;4.776;2022-12-18T00:26:11;72.63;;;37.92;;
30539;SDS011;17321;46.312;4.776;2022-12-18T00:28:38;76.18;;;38.53;;
30539;SDS011;17321;46.312;4.776;2022-12-18T00:31:05;78.95;;;39.25;;
30539;SDS011;17321;46.312;4.776;2022-12-18T00:33:32;83.68;;;40.88;;
30539;SDS011;17321;46.312;4.776;2022-12-18T00:36:05;76.60;;;38.95;;
30539;SDS011;17321;46.312;4.776;2022-12-18T00:38:32;78.13;;;38.45;;
30539;SDS011;17321;46.312;4.776;2022-12-18T00:40:58;71.95;;;37.72;;
30539;SDS011;17321;46.312;4.776;2022-12-18T00:43:24;75.50;;;37.47;;
30539;SDS011;17321;46.312;4.776;2022-12-18T00:45:50;76.25;;;38.97;;
30539;SDS011;17321;46.312;4.776;2022-12-18T00:48:16;71.47;;;36.38;;
30539;SDS011;17321;46.312;4.776;2022-12-18T00:50:42;75.55;;;38.28;;
30539;SDS011;17321;46.312;4.776;2022-12-18T00:53:08;76.25;;;39.65;;
30539;SDS011;17321;46.312;4.776;2022-12-18T00:55:35;68.00;;;35.28;;
30539;SDS011;17321;46.312;4.776;2022-12-18T00:58:02;79.90;;;37.92;;
30539;SDS011;17321;46.312;4.776;2022-12-18T01:00:28;74.63;;;37.58;;
30539;SDS011;17321;46.312;4.776;2022-12-18T01:02:54;69.85;;;37.30;;
30539;SDS011;17321;46.312;4.776;2022-12-18T01:05:21;74.28;;;37.92;;
30539;SDS011;17321;46.312;4.776;2022-12-18T01:07:47;72.82;;;37.75;;
30539;SDS011;17321;46.312;4.776;2022-12-18T01:10:13;71.80;;;37.38;;
30539;SDS011;17321;46.312;4.776;2022-12-18T01:12:39;68.55;;;36.28;;
30539;SDS011;17321;46.312;4.776;2022-12-18T01:15:13;77.78;;;37.38;;
30539;SDS011;17321;46.312;4.776;2022-12-18T01:17:39;69.90;;;36.00;;
30539;SDS011;17321;46.312;4.776;2022-12-18T01:20:06;70.55;;;36.85;;
30539;SDS011;17321;46.312;4.776;2022-12-18T01:22:32;76.40;;;35.72;;
30539;SDS011;17321;46.312;4.776;2022-12-18T01:24:58;78.57;;;37.63;;
30539;SDS011;17321;46.312;4.776;2022-12-18T01:27:24;71.22;;;35.35;;
30539;SDS011;17321;46.312;4.776;2022-12-18T01:29:50;69.00;;;36.35;;
30539;SDS011;17321;46.312;4.776;2022-12-18T01:32:17;77.63;;;38.10;;
30539;SDS011;17321;46.312;4.776;2022-12-18T01:34:43;71.05;;;37.10;;
30539;SDS011;17321;46.312;4.776;2022-12-18T01:37:09;62.58;;;34.20;;
30539;SDS011;17321;46.312;4.776;2022-12-18T01:39:35;73.90;;;37.13;;
30539;SDS011;17321;46.312;4.776;2022-12-18T01:42:10;71.28;;;37.33;;
30539;SDS011;17321;46.312;4.776;2022-12-18T01:47:38;71.45;;;37.70;;
30539;SDS011;17321;46.312;4.776;2022-12-18T01:50:09;73.60;;;36.97;;
30539;SDS011;17321;46.312;4.776;2022-12-18T01:52:36;80.40;;;37.75;;
30539;SDS011;17321;46.312;4.776;2022-12-18T01:55:03;76.05;;;36.80;;
30539;SDS011;17321;46.312;4.776;2022-12-18T01:57:31;70.60;;;36.10;;
30539;SDS011;17321;46.312;4.776;2022-12-18T01:59:59;63.15;;;34.20;;
30539;SDS011;17321;46.312;4.776;2022-12-18T02:02:27;72.60;;;37.20;;
30539;SDS011;17321;46.312;4.776;2022-12-18T02:04:54;67.53;;;34.53;;
30539;SDS011;17321;46.312;4.776;2022-12-18T02:17:47;64.72;;;34.60;;
30539;SDS011;17321;46.312;4.776;2022-12-18T02:25:13;64.63;;;31.92;;
30539;SDS011;17321;46.312;4.776;2022-12-18T02:27:45;68.25;;;33.65;;
30539;SDS011;17321;46.312;4.776;2022-12-18T02:30:12;65.65;;;34.35;;
30539;SDS011;17321;46.312;4.776;2022-12-18T02:32:39;65.38;;;33.35;;
30539;SDS011;17321;46.312;4.776;2022-12-18T02:35:09;66.75;;;34.83;;
30539;SDS011;17321;46.312;4.776;2022-12-18T02:37:36;65.38;;;33.25;;
30539;SDS011;17321;46.312;4.776;2022-12-18T02:40:05;63.90;;;33.63;;
30539;SDS011;17321;46.312;4.776;2022-12-18T02:42:31;68.85;;;35.00;;
30539;SDS011;17321;46.312;4.776;2022-12-18T02:44:58;65.38;;;35.15;;
30539;SDS011;17321;46.312;4.776;2022-12-18T02:47:26;65.78;;;34.88;;
30539;SDS011;17321;46.312;4.776;2022-12-18T03:00:45;69.20;;;34.38;;
30539;SDS011;17321;46.312;4.776;2022-12-18T03:03:14;62.90;;;33.38;;
30539;SDS011;17321;46.312;4.776;2022-12-18T03:05:47;70.63;;;35.65;;
30539;SDS011;17321;46.312;4.776;2022-12-18T03:08:18;70.90;;;35.75;;
30539;SDS011;17321;46.312;4.776;2022-12-18T03:10:57;66.57;;;35.25;;
30539;SDS011;17321;46.312;4.776;2022-12-18T03:13:28;72.45;;;36.67;;
30539;SDS011;17321;46.312;4.776;2022-12-18T03:15:57;64.03;;;33.90;;
30539;SDS011;17321;46.312;4.776;2022-12-18T03:18:27;74.15;;;37.38;;
30539;SDS011;17321;46.312;4.776;2022-12-18T03:20:56;72.10;;;37.28;;
30539;SDS011;17321;46.312;4.776;2022-12-18T03:23:24;68.03;;;35.90;;
30539;SDS011;17321;46.312;4.776;2022-12-18T03:25:52;76.32;;;36.75;;
30539;SDS011;17321;46.312;4.776;2022-12-18T03:28:19;76.35;;;36.72;;
30539;SDS011;17321;46.312;4.776;2022-12-18T03:30:46;80.57;;;37.63;;
30539;SDS011;17321;46.312;4.776;2022-12-18T03:33:16;75.82;;;37.58;;
30539;SDS011;17321;46.312;4.776;2022-12-18T03:35:44;77.93;;;39.58;;
30539;SDS011;17321;46.312;4.776;2022-12-18T03:38:11;78.13;;;39.25;;
30539;SDS011;17321;46.312;4.776;2022-12-18T03:45:52;80.45;;;38.75;;
30539;SDS011;17321;46.312;4.776;2022-12-18T04:56:46;83.82;;;40.20;;
30539;SDS011;17321;46.312;4.776;2022-12-18T04:59:12;81.88;;;39.80;;
30539;SDS011;17321;46.312;4.776;2022-12-18T05:01:38;81.30;;;40.10;;
30539;SDS011;17321;46.312;4.776;2022-12-18T05:04:05;84.65;;;40.58;;
30539;SDS011;17321;46.312;4.776;2022-12-18T05:06:31;80.53;;;40.53;;
30539;SDS011;17321;46.312;4.776;2022-12-18T05:08:57;76.72;;;38.08;;
30539;SDS011;17321;46.312;4.776;2022-12-18T05:11:23;79.25;;;38.58;;
30539;SDS011;17321;46.312;4.776;2022-12-18T05:13:49;74.63;;;36.83;;
30539;SDS011;17321;46.312;4.776;2022-12-18T05:16:15;72.40;;;35.95;;
30539;SDS011;17321;46.312;4.776;2022-12-18T05:18:41;70.43;;;35.63;;
30539;SDS011;17321;46.312;4.776;2022-12-18T05:21:08;68.20;;;35.88;;
30539;SDS011;17321;46.312;4.776;2022-12-18T05:23:34;69.20;;;35.15;;
30539;SDS011;17321;46.312;4.776;2022-12-18T05:26:01;69.32;;;36.03;;
30539;SDS011;17321;46.312;4.776;2022-12-18T05:31:25;62.92;;;31.98;;
30539;SDS011;17321;46.312;4.776;2022-12-18T05:33:51;67.30;;;35.22;;
30539;SDS011;17321;46.312;4.776;2022-12-18T05:36:17;65.25;;;34.33;;
30539;SDS011;17321;46.312;4.776;2022-12-18T05:38:43;66.43;;;34.25;;
30539;SDS011;17321;46.312;4.776;2022-12-18T05:41:09;64.10;;;32.58;;
30539;SDS011;17321;46.312;4.776;2022-12-18T05:43:36;63.33;;;35.25;;
30539;SDS011;17321;46.312;4.776;2022-12-18T05:46:05;61.30;;;32.47;;
30539;SDS011;17321;46.312;4.776;2022-12-18T05:48:31;59.42;;;33.50;;
30539;SDS011;17321;46.312;4.776;2022-12-18T05:51:02;62.22;;;33.42;;
30539;SDS011;17321;46.312;4.776;2022-12-18T05:53:29;65.85;;;32.92;;
30539;SDS011;17321;46.312;4.776;2022-12-18T05:55:59;65.15;;;34.00;;
30539;SDS011;17321;46.312;4.776;2022-12-18T05:58:25;58.60;;;32.55;;
30539;SDS011;17321;46.312;4.776;2022-12-18T06:00:51;60.50;;;31.42;;
30539;SDS011;17321;46.312;4.776;2022-12-18T06:03:17;66.30;;;33.80;;
30539;SDS011;17321;46.312;4.776;2022-12-18T06:05:44;61.10;;;31.42;;
30539;SDS011;17321;46.312;4.776;2022-12-18T06:08:10;55.60;;;32.17;;
30539;SDS011;17321;46.312;4.776;2022-12-18T06:10:36;62.38;;;32.92;;
30539;SDS011;17321;46.312;4.776;2022-12-18T06:13:03;56.28;;;31.10;;
30539;SDS011;17321;46.312;4.776;2022-12-18T06:15:29;57.60;;;30.88;;
30539;SDS011;17321;46.312;4.776;2022-12-18T06:17:55;57.65;;;31.65;;
30539;SDS011;17321;46.312;4.776;2022-12-18T06:20:21;57.22;;;31.35;;
30539;SDS011;17321;46.312;4.776;2022-12-18T06:22:47;57.60;;;31.38;;
30539;SDS011;17321;46.312;4.776;2022-12-18T06:25:14;60.92;;;32.33;;
30539;SDS011;17321;46.312;4.776;2022-12-18T06:27:40;58.40;;;31.13;;
30539;SDS011;17321;46.312;4.776;2022-12-18T06:30:06;55.58;;;30.08;;
30539;SDS011;17321;46.312;4.776;2022-12-18T06:32:33;55.35;;;29.90;;
30539;SDS011;17321;46.312;4.776;2022-12-18T06:34:59;56.10;;;29.25;;
30539;SDS011;17321;46.312;4.776;2022-12-18T06:37:25;62.85;;;33.00;;
30539;SDS011;17321;46.312;4.776;2022-12-18T06:39:52;54.33;;;28.75;;
30539;SDS011;17321;46.312;4.776;2022-12-18T06:42:18;57.70;;;30.83;;
30539;SDS011;17321;46.312;4.776;2022-12-18T06:44:44;53.50;;;29.38;;
30539;SDS011;17321;46.312;4.776;2022-12-18T06:47:10;64.32;;;30.67;;
30539;SDS011;17321;46.312;4.776;2022-12-18T06:49:36;59.80;;;29.95;;
30539;SDS011;17321;46.312;4.776;2022-12-18T06:52:02;54.10;;;29.35;;
30539;SDS011;17321;46.312;4.776;2022-12-18T06:54:29;57.05;;;30.58;;
30539;SDS011;17321;46.312;4.776;2022-12-18T06:56:55;56.53;;;29.70;;
30539;SDS011;17321;46.312;4.776;2022-12-18T06:59:21;59.22;;;28.90;;
30539;SDS011;17321;46.312;4.776;2022-12-18T07:01:47;53.30;;;28.95;;
30539;SDS011;17321;46.312;4.776;2022-12-18T07:04:13;53.47;;;28.40;;
30539;SDS011;17321;46.312;4.776;2022-12-18T07:06:39;54.45;;;29.15;;
30539;SDS011;17321;46.312;4.776;2022-12-18T07:09:05;59.00;;;30.90;;
30539;SDS011;17321;46.312;4.776;2022-12-18T07:11:34;56.03;;;29.08;;
30539;SDS011;17321;46.312;4.776;2022-12-18T07:16:27;55.47;;;28.95;;
30539;SDS011;17321;46.312;4.776;2022-12-18T07:18:54;55.70;;;29.35;;
30539;SDS011;17321;46.312;4.776;2022-12-18T07:21:20;65.63;;;30.67;;
30539;SDS011;17321;46.312;4.776;2022-12-18T07:23:47;58.20;;;30.40;;
30539;SDS011;17321;46.312;4.776;2022-12-18T07:26:13;60.63;;;29.40;;
30539;SDS011;17321;46.312;4.776;2022-12-18T07:28:40;56.78;;;29.88;;
30539;SDS011;17321;46.312;4.776;2022-12-18T07:31:08;58.35;;;31.05;;
30539;SDS011;17321;46.312;4.776;2022-12-18T07:33:34;57.83;;;31.02;;
30539;SDS011;17321;46.312;4.776;2022-12-18T07:36:01;58.50;;;29.65;;
30539;SDS011;17321;46.312;4.776;2022-12-18T07:38:28;56.85;;;30.27;;
30539;SDS011;17321;46.312;4.776;2022-12-18T07:40:54;57.00;;;31.02;;
30539;SDS011;17321;46.312;4.776;2022-12-18T07:43:21;59.42;;;31.15;;
30539;SDS011;17321;46.312;4.776;2022-12-18T07:45:48;55.15;;;31.27;;
30539;SDS011;17321;46.312;4.776;2022-12-18T07:48:15;56.22;;;28.85;;
30539;SDS011;17321;46.312;4.776;2022-12-18T07:50:41;60.90;;;32.17;;
30539;SDS011;17321;46.312;4.776;2022-12-18T07:53:07;51.92;;;28.75;;
30539;SDS011;17321;46.312;4.776;2022-12-18T07:55:34;57.55;;;29.25;;
30539;SDS011;17321;46.312;4.776;2022-12-18T07:58:01;57.42;;;29.20;;
30539;SDS011;17321;46.312;4.776;2022-12-18T08:00:27;64.05;;;32.33;;
30539;SDS011;17321;46.312;4.776;2022-12-18T08:02:53;60.92;;;32.30;;
30539;SDS011;17321;46.312;4.776;2022-12-18T08:05:20;58.50;;;31.15;;
30539;SDS011;17321;46.312;4.776;2022-12-18T08:07:46;63.33;;;32.25;;
30539;SDS011;17321;46.312;4.776;2022-12-18T08:10:12;63.40;;;31.73;;
30539;SDS011;17321;46.312;4.776;2022-12-18T08:12:38;56.97;;;29.77;;
30539;SDS011;17321;46.312;4.776;2022-12-18T08:15:05;59.60;;;29.63;;
30539;SDS011;17321;46.312;4.776;2022-12-18T08:17:31;59.13;;;30.52;;
30539;SDS011;17321;46.312;4.776;2022-12-18T08:19:57;54.28;;;29.65;;
30539;SDS011;17321;46.312;4.776;2022-12-18T08:22:24;61.72;;;31.48;;
30539;SDS011;17321;46.312;4.776;2022-12-18T08:24:50;62.40;;;31.92;;
30539;SDS011;17321;46.312;4.776;2022-12-18T08:27:16;67.85;;;33.55;;
30539;SDS011;17321;46.312;4.776;2022-12-18T08:29:43;71.40;;;33.72;;
30539;SDS011;17321;46.312;4.776;2022-12-18T08:32:09;64.47;;;32.17;;
30539;SDS011;17321;46.312;4.776;2022-12-18T08:34:35;62.83;;;32.63;;
30539;SDS011;17321;46.312;4.776;2022-12-18T08:37:01;65.78;;;33.33;;
30539;SDS011;17321;46.312;4.776;2022-12-18T08:39:28;69.10;;;32.80;;
30539;SDS011;17321;46.312;4.776;2022-12-18T08:41:54;74.97;;;35.60;;
30539;SDS011;17321;46.312;4.776;2022-12-18T08:44:38;66.60;;;31.42;;
30539;SDS011;17321;46.312;4.776;2022-12-18T08:47:05;68.85;;;32.45;;
30539;SDS011;17321;46.312;4.776;2022-12-18T08:49:32;59.78;;;31.02;;
30539;SDS011;17321;46.312;4.776;2022-12-18T08:51:58;58.53;;;30.30;;
30539;SDS011;17321;46.312;4.776;2022-12-18T08:54:25;61.42;;;30.45;;
30539;SDS011;17321;46.312;4.776;2022-12-18T08:56:51;67.28;;;32.40;;
30539;SDS011;17321;46.312;4.776;2022-12-18T08:59:18;61.42;;;30.95;;
30539;SDS011;17321;46.312;4.776;2022-12-18T09:01:44;58.85;;;30.80;;
30539;SDS011;17321;46.312;4.776;2022-12-18T09:04:11;64.03;;;31.05;;
30539;SDS011;17321;46.312;4.776;2022-12-18T09:06:39;58.65;;;30.55;;
30539;SDS011;17321;46.312;4.776;2022-12-18T09:09:05;58.88;;;30.67;;
30539;SDS011;17321;46.312;4.776;2022-12-18T09:11:32;66.43;;;31.15;;
30539;SDS011;17321;46.312;4.776;2022-12-18T09:13:59;58.97;;;29.35;;
30539;SDS011;17321;46.312;4.776;2022-12-18T09:16:26;55.03;;;28.40;;
30539;SDS011;17321;46.312;4.776;2022-12-18T09:18:54;59.42;;;31.35;;
30539;SDS011;17321;46.312;4.776;2022-12-18T09:21:24;55.97;;;29.13;;
30539;SDS011;17321;46.312;4.776;2022-12-18T09:23:50;47.83;;;26.42;;
30539;SDS011;17321;46.312;4.776;2022-12-18T09:26:17;51.25;;;27.17;;
30539;SDS011;17321;46.312;4.776;2022-12-18T09:28:43;50.40;;;25.77;;
30539;SDS011;17321;46.312;4.776;2022-12-18T09:31:10;48.05;;;25.75;;
30539;SDS011;17321;46.312;4.776;2022-12-18T09:33:37;54.80;;;27.40;;
30539;SDS011;17321;46.312;4.776;2022-12-18T09:36:04;52.85;;;28.90;;
30539;SDS011;17321;46.312;4.776;2022-12-18T09:38:30;54.83;;;29.55;;
30539;SDS011;17321;46.312;4.776;2022-12-18T09:41:03;54.05;;;28.63;;
30539;SDS011;17321;46.312;4.776;2022-12-18T09:43:39;51.50;;;27.85;;
30539;SDS011;17321;46.312;4.776;2022-12-18T09:46:11;50.92;;;26.08;;
30539;SDS011;17321;46.312;4.776;2022-12-18T09:48:42;48.63;;;28.10;;
30539;SDS011;17321;46.312;4.776;2022-12-18T09:51:15;50.42;;;27.60;;
30539;SDS011;17321;46.312;4.776;2022-12-18T09:53:42;48.28;;;27.05;;
30539;SDS011;17321;46.312;4.776;2022-12-18T09:56:12;53.63;;;29.10;;
30539;SDS011;17321;46.312;4.776;2022-12-18T09:58:45;47.95;;;27.55;;
30539;SDS011;17321;46.312;4.776;2022-12-18T10:01:23;53.42;;;28.08;;
30539;SDS011;17321;46.312;4.776;2022-12-18T10:03:50;46.40;;;26.90;;
30539;SDS011;17321;46.312;4.776;2022-12-18T10:06:32;52.28;;;28.45;;
30539;SDS011;17321;46.312;4.776;2022-12-18T10:09:45;54.35;;;29.25;;
30539;SDS011;17321;46.312;4.776;2022-12-18T10:14:23;55.00;;;27.10;;
30539;SDS011;17321;46.312;4.776;2022-12-18T10:22:49;51.83;;;28.63;;
30539;SDS011;17321;46.312;4.776;2022-12-18T10:29:50;52.17;;;27.60;;
30539;SDS011;17321;46.312;4.776;2022-12-18T10:32:18;48.55;;;27.13;;
30539;SDS011;17321;46.312;4.776;2022-12-18T10:34:46;47.40;;;27.73;;
30539;SDS011;17321;46.312;4.776;2022-12-18T10:37:15;52.05;;;28.13;;
30539;SDS011;17321;46.312;4.776;2022-12-18T10:39:42;47.08;;;25.98;;
30539;SDS011;17321;46.312;4.776;2022-12-18T10:42:10;48.58;;;26.90;;
30539;SDS011;17321;46.312;4.776;2022-12-18T10:47:04;53.88;;;27.13;;
30539;SDS011;17321;46.312;4.776;2022-12-18T10:49:32;51.83;;;27.77;;
30539;SDS011;17321;46.312;4.776;2022-12-18T10:52:07;51.35;;;27.75;;
30539;SDS011;17321;46.312;4.776;2022-12-18T10:54:37;47.03;;;28.70;;
30539;SDS011;17321;46.312;4.776;2022-12-18T10:57:28;51.75;;;26.85;;
30539;SDS011;17321;46.312;4.776;2022-12-18T10:59:56;50.55;;;28.70;;
30539;SDS011;17321;46.312;4.776;2022-12-18T11:04:55;49.28;;;26.65;;
30539;SDS011;17321;46.312;4.776;2022-12-18T11:07:21;51.50;;;29.38;;
30539;SDS011;17321;46.312;4.776;2022-12-18T11:09:59;55.45;;;29.27;;
30539;SDS011;17321;46.312;4.776;2022-12-18T11:12:25;48.20;;;27.30;;
30539;SDS011;17321;46.312;4.776;2022-12-18T11:14:54;50.97;;;28.80;;
30539;SDS011;17321;46.312;4.776;2022-12-18T11:17:29;52.03;;;28.88;;
30539;SDS011;17321;46.312;4.776;2022-12-18T11:19:56;51.70;;;28.50;;
30539;SDS011;17321;46.312;4.776;2022-12-18T11:22:33;51.75;;;28.75;;
30539;SDS011;17321;46.312;4.776;2022-12-18T11:27:26;57.70;;;28.10;;
30539;SDS011;17321;46.312;4.776;2022-12-18T11:30:06;52.03;;;27.40;;
30539;SDS011;17321;46.312;4.776;2022-12-18T11:32:34;58.33;;;29.42;;
30539;SDS011;17321;46.312;4.776;2022-12-18T11:35:03;52.45;;;28.88;;
30539;SDS011;17321;46.312;4.776;2022-12-18T11:37:31;53.67;;;29.58;;
30539;SDS011;17321;46.312;4.776;2022-12-18T11:40:19;52.58;;;28.35;;
30539;SDS011;17321;46.312;4.776;2022-12-18T11:47:44;56.28;;;30.23;;
30539;SDS011;17321;46.312;4.776;2022-12-18T11:50:25;49.35;;;28.45;;
30539;SDS011;17321;46.312;4.776;2022-12-18T11:52:52;54.38;;;29.73;;
30539;SDS011;17321;46.312;4.776;2022-12-18T11:57:55;59.53;;;32.40;;
30539;SDS011;17321;46.312;4.776;2022-12-18T12:00:24;54.60;;;28.13;;
30539;SDS011;17321;46.312;4.776;2022-12-18T12:11:07;50.67;;;29.45;;
30539;SDS011;17321;46.312;4.776;2022-12-18T12:13:53;48.55;;;28.38;;
30539;SDS011;17321;46.312;4.776;2022-12-18T12:16:32;45.55;;;26.35;;
30539;SDS011;17321;46.312;4.776;2022-12-18T12:24:42;46.20;;;27.05;;
30539;SDS011;17321;46.312;4.776;2022-12-18T12:27:18;47.97;;;26.80;;
30539;SDS011;17321;46.312;4.776;2022-12-18T12:35:04;48.10;;;28.05;;
30539;SDS011;17321;46.312;4.776;2022-12-18T12:40:00;44.95;;;26.77;;
30539;SDS011;17321;46.312;4.776;2022-12-18T12:42:41;47.38;;;26.80;;
30539;SDS011;17321;46.312;4.776;2022-12-18T12:45:29;39.90;;;24.60;;
30539;SDS011;17321;46.312;4.776;2022-12-18T12:47:57;45.35;;;26.27;;
30539;SDS011;17321;46.312;4.776;2022-12-18T12:50:24;42.97;;;25.55;;
30539;SDS011;17321;46.312;4.776;2022-12-18T12:52:51;41.42;;;23.55;;
30539;SDS011;17321;46.312;4.776;2022-12-18T12:55:22;36.53;;;22.60;;
30539;SDS011;17321;46.312;4.776;2022-12-18T13:05:24;38.00;;;23.50;;
30539;SDS011;17321;46.312;4.776;2022-12-18T13:08:01;40.95;;;22.13;;
30539;SDS011;17321;46.312;4.776;2022-12-18T13:10:35;39.40;;;24.65;;
30539;SDS011;17321;46.312;4.776;2022-12-18T13:13:03;38.58;;;23.23;;
30539;SDS011;17321;46.312;4.776;2022-12-18T13:15:40;39.90;;;23.87;;
30539;SDS011;17321;46.312;4.776;2022-12-18T13:20:34;39.70;;;24.02;;
30539;SDS011;17321;46.312;4.776;2022-12-18T13:23:01;43.85;;;26.45;;
30539;SDS011;17321;46.312;4.776;2022-12-18T13:25:44;36.20;;;23.08;;
30539;SDS011;17321;46.312;4.776;2022-12-18T13:28:12;37.75;;;22.35;;
30539;SDS011;17321;46.312;4.776;2022-12-18T13:30:41;37.10;;;22.55;;
30539;SDS011;17321;46.312;4.776;2022-12-18T13:35:41;39.80;;;22.85;;
30539;SDS011;17321;46.312;4.776;2022-12-18T13:40:55;36.78;;;22.38;;
30539;SDS011;17321;46.312;4.776;2022-12-18T13:43:23;40.63;;;22.20;;
30539;SDS011;17321;46.312;4.776;2022-12-18T13:48:23;36.03;;;21.10;;
30539;SDS011;17321;46.312;4.776;2022-12-18T13:51:08;34.25;;;20.83;;
30539;SDS011;17321;46.312;4.776;2022-12-18T13:53:37;38.05;;;22.67;;
30539;SDS011;17321;46.312;4.776;2022-12-18T13:56:04;38.55;;;22.13;;
30539;SDS011;17321;46.312;4.776;2022-12-18T13:58:31;34.63;;;22.60;;
30539;SDS011;17321;46.312;4.776;2022-12-18T14:00:58;36.90;;;22.08;;
30539;SDS011;17321;46.312;4.776;2022-12-18T14:03:28;36.88;;;22.40;;
30539;SDS011;17321;46.312;4.776;2022-12-18T14:05:56;34.17;;;22.08;;
30539;SDS011;17321;46.312;4.776;2022-12-18T14:10:51;31.45;;;20.60;;
30539;SDS011;17321;46.312;4.776;2022-12-18T14:13:28;34.00;;;20.65;;
30539;SDS011;17321;46.312;4.776;2022-12-18T14:15:55;35.13;;;20.77;;
30539;SDS011;17321;46.312;4.776;2022-12-18T14:20:48;37.05;;;21.42;;
30539;SDS011;17321;46.312;4.776;2022-12-18T14:26:00;31.77;;;20.80;;
30539;SDS011;17321;46.312;4.776;2022-12-18T14:28:26;37.03;;;21.65;;
30539;SDS011;17321;46.312;4.776;2022-12-18T14:30:53;32.22;;;20.23;;
30539;SDS011;17321;46.312;4.776;2022-12-18T14:33:24;41.90;;;19.90;;
30539;SDS011;17321;46.312;4.776;2022-12-18T14:35:58;34.47;;;21.17;;
30539;SDS011;17321;46.312;4.776;2022-12-18T14:38:38;35.75;;;20.90;;
30539;SDS011;17321;46.312;4.776;2022-12-18T14:41:15;35.45;;;21.63;;
30539;SDS011;17321;46.312;4.776;2022-12-18T14:43:42;33.42;;;20.50;;
30539;SDS011;17321;46.312;4.776;2022-12-18T14:48:53;36.85;;;22.75;;
30539;SDS011;17321;46.312;4.776;2022-12-18T14:51:20;37.30;;;22.55;;
30539;SDS011;17321;46.312;4.776;2022-12-18T14:53:47;39.10;;;23.58;;
30539;SDS011;17321;46.312;4.776;2022-12-18T14:56:15;36.80;;;23.85;;
30539;SDS011;17321;46.312;4.776;2022-12-18T14:58:48;34.20;;;22.00;;
30539;SDS011;17321;46.312;4.776;2022-12-18T15:01:19;34.45;;;20.13;;
30539;SDS011;17321;46.312;4.776;2022-12-18T15:03:46;35.83;;;20.23;;
30539;SDS011;17321;46.312;4.776;2022-12-18T15:08:58;37.78;;;22.80;;
30539;SDS011;17321;46.312;4.776;2022-12-18T15:11:30;36.60;;;22.38;;
30539;SDS011;17321;46.312;4.776;2022-12-18T15:13:58;30.77;;;20.33;;
30539;SDS011;17321;46.312;4.776;2022-12-18T15:16:25;32.55;;;20.77;;
30539;SDS011;17321;46.312;4.776;2022-12-18T15:18:52;34.38;;;18.83;;
30539;SDS011;17321;46.312;4.776;2022-12-18T15:21:19;30.20;;;19.20;;
30539;SDS011;17321;46.312;4.776;2022-12-18T15:23:52;30.17;;;18.80;;
30539;SDS011;17321;46.312;4.776;2022-12-18T15:26:19;29.95;;;17.50;;
30539;SDS011;17321;46.312;4.776;2022-12-18T15:28:50;31.02;;;18.08;;
30539;SDS011;17321;46.312;4.776;2022-12-18T15:36:18;29.25;;;19.08;;
30539;SDS011;17321;46.312;4.776;2022-12-18T15:38:48;34.38;;;18.20;;
30539;SDS011;17321;46.312;4.776;2022-12-18T15:41:15;30.85;;;19.65;;
30539;SDS011;17321;46.312;4.776;2022-12-18T15:43:42;30.75;;;19.30;;
30539;SDS011;17321;46.312;4.776;2022-12-18T15:46:21;29.50;;;18.08;;
30539;SDS011;17321;46.312;4.776;2022-12-18T15:48:48;29.80;;;19.60;;
30539;SDS011;17321;46.312;4.776;2022-12-18T15:51:21;31.15;;;18.80;;
30539;SDS011;17321;46.312;4.776;2022-12-18T15:53:48;26.30;;;17.42;;
30539;SDS011;17321;46.312;4.776;2022-12-18T15:56:15;28.13;;;16.92;;
30539;SDS011;17321;46.312;4.776;2022-12-18T15:59:01;25.85;;;16.35;;
30539;SDS011;17321;46.312;4.776;2022-12-18T16:01:28;25.33;;;16.35;;
30539;SDS011;17321;46.312;4.776;2022-12-18T16:03:54;26.48;;;16.20;;
30539;SDS011;17321;46.312;4.776;2022-12-18T16:06:21;23.52;;;15.60;;
30539;SDS011;17321;46.312;4.776;2022-12-18T16:08:47;28.48;;;15.35;;
30539;SDS011;17321;46.312;4.776;2022-12-18T16:11:24;26.95;;;15.65;;
30539;SDS011;17321;46.312;4.776;2022-12-18T16:16:45;25.42;;;15.40;;
30539;SDS011;17321;46.312;4.776;2022-12-18T16:19:11;32.05;;;17.38;;
30539;SDS011;17321;46.312;4.776;2022-12-18T16:21:38;34.80;;;19.42;;
30539;SDS011;17321;46.312;4.776;2022-12-18T16:24:04;29.88;;;18.65;;
30539;SDS011;17321;46.312;4.776;2022-12-18T16:26:33;31.60;;;18.95;;
30539;SDS011;17321;46.312;4.776;2022-12-18T16:28:59;35.38;;;20.80;;
30539;SDS011;17321;46.312;4.776;2022-12-18T16:31:25;34.97;;;21.15;;
30539;SDS011;17321;46.312;4.776;2022-12-18T16:34:09;30.20;;;19.40;;
30539;SDS011;17321;46.312;4.776;2022-12-18T16:36:35;33.92;;;20.52;;
30539;SDS011;17321;46.312;4.776;2022-12-18T16:39:04;33.50;;;20.17;;
30539;SDS011;17321;46.312;4.776;2022-12-18T16:41:30;38.08;;;20.80;;
30539;SDS011;17321;46.312;4.776;2022-12-18T16:43:57;40.05;;;23.35;;
30539;SDS011;17321;46.312;4.776;2022-12-18T16:46:23;36.47;;;21.63;;
30539;SDS011;17321;46.312;4.776;2022-12-18T16:48:50;34.70;;;22.48;;
30539;SDS011;17321;46.312;4.776;2022-12-18T16:51:16;39.67;;;22.10;;
30539;SDS011;17321;46.312;4.776;2022-12-18T16:53:42;33.30;;;21.83;;
30539;SDS011;17321;46.312;4.776;2022-12-18T16:56:08;37.30;;;22.08;;
30539;SDS011;17321;46.312;4.776;2022-12-18T16:58:34;32.65;;;20.15;;
30539;SDS011;17321;46.312;4.776;2022-12-18T17:01:00;37.03;;;21.30;;
30539;SDS011;17321;46.312;4.776;2022-12-18T17:03:27;34.83;;;21.13;;
30539;SDS011;17321;46.312;4.776;2022-12-18T17:05:53;33.10;;;20.67;;
30539;SDS011;17321;46.312;4.776;2022-12-18T17:08:19;35.75;;;20.65;;
30539;SDS011;17321;46.312;4.776;2022-12-18T17:10:45;36.35;;;20.73;;
30539;SDS011;17321;46.312;4.776;2022-12-18T17:13:11;34.95;;;22.13;;
30539;SDS011;17321;46.312;4.776;2022-12-18T17:15:37;33.80;;;20.45;;
30539;SDS011;17321;46.312;4.776;2022-12-18T17:18:03;34.05;;;20.95;;
30539;SDS011;17321;46.312;4.776;2022-12-18T17:20:29;34.58;;;21.73;;
30539;SDS011;17321;46.312;4.776;2022-12-18T17:22:59;35.15;;;20.65;;
30539;SDS011;17321;46.312;4.776;2022-12-18T17:27:51;32.70;;;20.45;;
30539;SDS011;17321;46.312;4.776;2022-12-18T17:30:17;38.00;;;21.65;;
30539;SDS011;17321;46.312;4.776;2022-12-18T17:32:43;39.38;;;23.40;;
30539;SDS011;17321;46.312;4.776;2022-12-18T17:35:09;44.17;;;23.65;;
30539;SDS011;17321;46.312;4.776;2022-12-18T17:37:35;38.30;;;20.02;;
30539;SDS011;17321;46.312;4.776;2022-12-18T17:40:01;40.22;;;24.10;;
30539;SDS011;17321;46.312;4.776;2022-12-18T17:42:27;34.90;;;22.05;;
30539;SDS011;17321;46.312;4.776;2022-12-18T17:44:54;38.20;;;23.52;;
30539;SDS011;17321;46.312;4.776;2022-12-18T17:47:20;40.13;;;22.80;;